Time;durP1;ratioP1;P1;durP2;ratioP2;P2;SDS_P1;SDS_P2;PMS_P1;PMS_P2;Temp;Humidity;BMP_temperature;BMP_pressure;BME280_temperature;BME280_humidity;BME280_pressure;Samples;Min_cycle;Max_cycle;Signal;HPM_P1;HPM_P2
2021/12/24 00:00:09;;;;;;;36.13;24.90;;;-1.70;99.90;-2.70;98424;;;;564764;250;24136;-76
2021/12/24 00:02:36;;;;;;;38.27;26.13;;;-1.70;99.90;-2.70;98417;;;;559574;252;24268;-75
2021/12/24 00:05:04;;;;;;;42.40;27.63;;;-1.70;99.90;-2.70;98408;;;;547151;258;24052;-77
2021/12/24 00:07:34;;;;;;;36.60;25.53;;;-1.70;99.90;-2.70;98413;;;;559558;252;24147;-75
2021/12/24 00:09:59;;;;;;;48.10;29.93;;;-1.70;99.90;-2.70;98404;;;;558050;252;24166;-76
2021/12/24 00:12:31;;;;;;;43.47;29.23;;;-1.60;99.90;-2.70;98394;;;;562254;252;24159;-77
2021/12/24 00:15:01;;;;;;;44.30;28.43;;;-1.60;99.90;-2.70;98387;;;;559499;252;24150;-77
2021/12/24 00:17:29;;;;;;;29.27;21.20;;;-1.70;99.90;-2.70;98378;;;;560941;252;24115;-76
2021/12/24 00:35:56;;;;;;;29.50;23.27;;;-1.70;99.90;-2.70;98354;;;;561352;252;24176;-75
2021/12/24 00:38:24;;;;;;;31.93;22.57;;;-1.70;99.90;-2.70;98348;;;;562101;251;24159;-76
2021/12/24 00:40:55;;;;;;;34.67;23.27;;;-1.70;99.90;-2.70;98344;;;;562002;251;24115;-74
2021/12/24 00:43:21;;;;;;;30.47;21.90;;;-1.70;99.90;-2.70;98347;;;;560035;252;24152;-76
2021/12/24 00:45:49;;;;;;;35.00;23.03;;;-1.70;99.90;-2.70;98332;;;;570516;247;25207;-75
2021/12/24 00:48:16;;;;;;;40.87;26.27;;;-1.70;99.90;-2.80;98326;;;;569398;250;24151;-75
2021/12/24 00:56:05;;;;;;;29.13;22.53;;;-1.80;99.90;-2.80;98322;;;;561807;251;24125;-76
2021/12/24 00:58:32;;;;;;;25.67;18.63;;;-1.80;99.90;-2.80;98319;;;;569806;251;24113;-75
2021/12/24 01:01:00;;;;;;;29.80;21.50;;;-1.80;99.90;-2.80;98320;;;;570073;251;24113;-75
2021/12/24 01:03:28;;;;;;;25.00;20.07;;;-1.80;99.90;-2.80;98323;;;;561600;251;24109;-75
2021/12/24 01:05:56;;;;;;;25.10;19.50;;;-1.80;99.90;-2.80;98321;;;;561622;251;24156;-75
2021/12/24 01:08:24;;;;;;;31.87;21.37;;;-1.80;99.90;-2.80;98326;;;;561246;251;24118;-76
2021/12/24 01:10:52;;;;;;;24.83;18.07;;;-1.80;99.90;-2.80;98317;;;;570081;248;24124;-75
2021/12/24 01:13:20;;;;;;;28.50;20.30;;;-1.80;99.90;-2.80;98315;;;;569830;249;24110;-76
2021/12/24 01:16:03;;;;;;;25.80;19.37;;;-1.70;99.90;-2.80;98313;;;;569761;252;24119;-73
2021/12/24 01:20:51;;;;;;;41.67;26.03;;;-1.70;99.90;-2.80;98304;;;;553310;255;25248;-74
2021/12/24 01:25:56;;;;;;;32.33;23.67;;;-1.70;99.90;-2.80;98298;;;;553924;255;28556;-74
2021/12/24 01:39:26;;;;;;;46.17;32.03;;;-1.70;99.90;-2.70;98278;;;;555721;254;24079;-75
2021/12/24 01:44:35;;;;;;;47.67;30.77;;;-1.70;99.90;-2.80;98284;;;;555712;254;24093;-77
2021/12/24 01:47:03;;;;;;;42.63;29.03;;;-1.70;99.90;-2.80;98275;;;;564040;253;24085;-76
2021/12/24 01:49:31;;;;;;;37.07;24.30;;;-1.70;99.90;-2.80;98272;;;;564789;252;24098;-76
2021/12/24 01:52:03;;;;;;;54.43;31.80;;;-1.70;99.90;-2.80;98275;;;;565113;252;24073;-76
2021/12/24 01:54:26;;;;;;;34.57;24.53;;;-1.70;99.90;-2.80;98266;;;;556572;254;24131;-76
2021/12/24 01:56:54;;;;;;;37.53;26.93;;;-1.70;99.90;-2.80;98265;;;;556437;254;24070;-77
2021/12/24 01:59:26;;;;;;;34.77;25.47;;;-1.70;99.90;-2.70;98272;;;;556234;254;24088;-76
2021/12/24 02:01:50;;;;;;;40.77;28.50;;;-1.70;99.90;-2.70;98261;;;;555859;254;24118;-76
2021/12/24 02:04:18;;;;;;;37.47;24.73;;;-1.70;99.90;-2.70;98264;;;;556222;254;24112;-75
2021/12/24 02:06:47;;;;;;;32.77;22.67;;;-1.70;99.90;-2.70;98264;;;;564286;250;24077;-75
2021/12/24 02:09:17;;;;;;;28.40;20.70;;;-1.70;99.90;-2.70;98257;;;;552106;254;24149;-76
2021/12/24 02:11:45;;;;;;;32.97;21.37;;;-1.70;99.90;-2.80;98248;;;;547045;254;24192;-76
2021/12/24 02:14:11;;;;;;;30.43;20.03;;;-1.70;99.90;-2.70;98249;;;;560730;254;24087;-76
2021/12/24 02:16:55;;;;;;;33.67;22.53;;;-1.70;99.90;-2.70;98239;;;;563767;249;24096;-76
2021/12/24 02:30:08;;;;;;;40.23;26.73;;;-1.70;99.90;-2.80;98210;;;;555237;254;24137;-75
2021/12/24 02:32:36;;;;;;;35.13;23.87;;;-1.80;99.90;-2.90;98206;;;;563642;253;24150;-76
2021/12/24 02:35:04;;;;;;;25.47;19.20;;;-1.80;99.90;-2.90;98215;;;;563171;251;24079;-75
2021/12/24 02:37:32;;;;;;;28.80;20.87;;;-1.90;99.90;-2.90;98220;;;;555435;254;24133;-74
2021/12/24 02:40:00;;;;;;;28.23;19.97;;;-1.90;99.90;-3.00;98215;;;;555403;254;24113;-73
2021/12/24 02:42:29;;;;;;;41.87;25.83;;;-1.90;99.90;-3.00;98221;;;;555269;254;24105;-74
2021/12/24 02:44:57;;;;;;;25.73;18.53;;;-1.90;99.90;-3.00;98219;;;;555372;254;24091;-73
2021/12/24 02:47:40;;;;;;;21.83;16.50;;;-1.90;99.90;-3.00;98208;;;;562324;251;24105;-74
2021/12/24 02:55:10;;;;;;;39.63;26.67;;;-1.80;99.90;-2.90;98204;;;;557649;252;24124;-75
2021/12/24 02:57:37;;;;;;;23.37;17.23;;;-1.80;99.90;-2.90;98199;;;;543537;258;25090;-76
2021/12/24 03:00:13;;;;;;;41.27;28.00;;;-1.80;99.90;-2.80;98196;;;;559582;250;24153;-77
2021/12/24 03:02:31;;;;;;;54.50;33.67;;;-1.80;99.90;-2.80;98178;;;;560452;252;24119;-77
2021/12/24 03:04:59;;;;;;;41.93;28.63;;;-1.80;99.90;-2.80;98169;;;;563227;252;24139;-76
2021/12/24 03:07:27;;;;;;;54.33;34.90;;;-1.80;99.90;-2.80;98160;;;;560278;252;24173;-73
2021/12/24 03:09:58;;;;;;;57.63;35.53;;;-1.80;99.90;-2.80;98165;;;;560073;252;24173;-74
2021/12/24 03:12:23;;;;;;;65.60;40.70;;;-1.80;99.90;-2.90;98148;;;;559797;252;24240;-74
2021/12/24 03:14:54;;;;;;;62.60;40.20;;;-1.80;99.90;-2.90;98153;;;;559955;252;24124;-74
2021/12/24 03:17:22;;;;;;;57.57;35.67;;;-1.90;99.90;-2.90;98162;;;;558667;252;24160;-75
2021/12/24 03:19:47;;;;;;;34.87;24.80;;;-1.90;99.90;-3.00;98157;;;;559588;252;24133;-75
2021/12/24 03:24:42;;;;;;;25.50;17.77;;;-1.90;99.90;-2.90;98160;;;;559799;252;24175;-76
2021/12/24 03:27:12;;;;;;;20.37;15.00;;;-1.90;99.90;-2.90;98150;;;;562368;252;24267;-74
2021/12/24 03:29:38;;;;;;;19.03;15.73;;;-1.90;99.90;-2.90;98151;;;;572560;250;24092;-75
2021/12/24 03:32:10;;;;;;;23.37;17.10;;;-1.90;99.90;-2.80;98142;;;;563206;249;24032;-76
2021/12/24 03:34:34;;;;;;;24.00;18.33;;;-1.80;99.90;-2.80;98145;;;;550825;255;24058;-76
2021/12/24 03:37:03;;;;;;;25.47;19.07;;;-1.70;99.90;-2.80;98129;;;;549060;256;24048;-76
2021/12/24 03:39:31;;;;;;;18.87;14.57;;;-1.70;99.90;-2.80;98122;;;;558769;253;24044;-76
2021/12/24 03:42:03;;;;;;;19.83;15.07;;;-1.70;99.90;-2.70;98120;;;;558957;256;24092;-76
2021/12/24 03:44:37;;;;;;;21.50;17.00;;;-1.70;99.90;-2.70;98118;;;;550359;256;24027;-76
2021/12/24 03:47:13;;;;;;;35.00;24.37;;;-1.70;99.90;-2.70;98114;;;;558879;253;24092;-77
2021/12/24 03:49:53;;;;;;;21.40;17.97;;;-1.70;99.90;-2.70;98117;;;;549979;256;24047;-76
2021/12/24 03:55:01;;;;;;;17.00;12.27;;;-1.70;99.90;-2.80;98117;;;;550690;256;24089;-77
2021/12/24 03:57:34;;;;;;;19.20;14.13;;;-1.70;99.90;-2.80;98116;;;;550771;256;24093;-77
2021/12/24 04:00:05;;;;;;;21.07;16.17;;;-1.70;99.90;-2.80;98112;;;;550800;256;24065;-77
2021/12/24 04:02:33;;;;;;;15.80;13.27;;;-1.70;99.90;-2.80;98100;;;;559625;252;24135;-75
2021/12/24 04:05:02;;;;;;;22.23;16.70;;;-1.70;99.90;-2.80;98088;;;;568795;252;24214;-76
2021/12/24 04:07:30;;;;;;;14.13;10.60;;;-1.80;99.90;-2.80;98083;;;;560497;252;24171;-76
2021/12/24 04:10:04;;;;;;;15.93;12.50;;;-1.70;99.90;-2.90;98095;;;;568869;252;24107;-76
2021/12/24 04:12:29;;;;;;;17.30;12.87;;;-1.80;99.90;-2.90;98108;;;;569666;250;24159;-75
2021/12/24 04:14:57;;;;;;;15.47;13.63;;;-1.80;99.90;-2.90;98108;;;;561636;251;24192;-76
2021/12/24 04:17:25;;;;;;;20.13;15.90;;;-1.80;99.90;-2.90;98091;;;;569709;251;24116;-76
2021/12/24 04:25:29;;;;;;;15.20;13.50;;;-1.80;99.90;-2.80;98099;;;;560883;252;24165;-75
2021/12/24 04:27:56;;;;;;;22.80;12.85;;;-1.70;99.90;-2.80;98092;;;;564373;250;35559;-74
2021/12/24 04:30:26;;;;;;;12.37;5.53;;;-1.70;99.90;-2.80;98088;;;;559544;252;24211;-74
2021/12/24 04:33:07;;;;;;;12.17;8.13;;;-1.70;99.90;-2.70;98085;;;;538965;262;24183;-76
2021/12/24 04:51:23;;;;;;;43.67;26.90;;;-1.60;99.90;-2.60;98078;;;;559810;256;24136;-74
2021/12/24 05:02:01;;;;;;;17.80;9.00;;;-1.60;99.90;-2.60;98080;;;;561044;252;24111;-75
2021/12/24 05:04:16;;;;;;;17.57;8.13;;;-1.50;99.90;-2.50;98087;;;;560447;252;24142;-74
2021/12/24 05:06:52;;;;;;;20.27;13.90;;;-1.50;99.90;-2.50;98085;;;;568909;247;24154;-75
2021/12/24 05:09:12;;;;;;;21.03;15.90;;;-1.40;99.90;-2.50;98092;;;;569229;252;24162;-74
2021/12/24 05:11:39;;;;;;;22.20;16.80;;;-1.40;99.90;-2.50;98085;;;;569178;252;24150;-75
2021/12/24 05:14:06;;;;;;;23.93;16.57;;;-1.40;99.90;-2.40;98077;;;;569284;252;24178;-75
2021/12/24 05:16:43;;;;;;;20.97;14.73;;;-1.40;99.90;-2.40;98070;;;;569207;252;24218;-74
2021/12/24 05:21:45;;;;;;;7.93;5.07;;;-1.30;99.90;-2.40;98062;;;;570533;251;24114;-74
2021/12/24 05:24:13;;;;;;;20.93;10.70;;;-1.40;99.90;-2.40;98063;;;;559790;252;24147;-74
2021/12/24 05:26:41;;;;;;;18.20;12.63;;;-1.40;99.90;-2.40;98058;;;;558587;251;24121;-75
2021/12/24 05:29:09;;;;;;;19.40;13.83;;;-1.30;99.90;-2.40;98049;;;;562744;251;25141;-74
2021/12/24 05:31:37;;;;;;;18.67;14.07;;;-1.30;99.90;-2.40;98056;;;;562755;249;24115;-74
2021/12/24 05:34:05;;;;;;;27.93;18.30;;;-1.40;99.90;-2.40;98055;;;;571031;251;24081;-74
2021/12/24 05:36:33;;;;;;;21.02;11.85;;;-1.40;99.90;-2.40;98059;;;;566047;248;35416;-74
2021/12/24 05:39:04;;;;;;;13.93;7.83;;;-1.40;99.90;-2.40;98059;;;;571028;251;24082;-74
2021/12/24 05:41:28;;;;;;;12.10;6.17;;;-1.30;99.90;-2.40;98056;;;;562193;251;24112;-75
2021/12/24 05:43:59;;;;;;;31.80;16.33;;;-1.30;99.90;-2.40;98049;;;;557757;251;24116;-74
2021/12/24 05:46:29;;;;;;;18.57;13.40;;;-1.30;99.90;-2.30;98044;;;;570749;251;24147;-75
2021/12/24 05:48:55;;;;;;;19.67;13.23;;;-1.30;99.90;-2.30;98040;;;;562098;251;24135;-75
2021/12/24 05:51:27;;;;;;;19.10;14.07;;;-1.30;99.90;-2.40;98044;;;;570533;251;24118;-75
2021/12/24 05:53:51;;;;;;;21.87;15.30;;;-1.30;99.90;-2.30;98036;;;;570228;249;24132;-74
2021/12/24 05:56:19;;;;;;;21.23;13.77;;;-1.30;99.90;-2.30;98034;;;;570288;251;24139;-74
2021/12/24 05:58:48;;;;;;;17.57;13.43;;;-1.30;99.90;-2.30;98022;;;;562002;251;24112;-75
2021/12/24 06:01:16;;;;;;;21.17;14.40;;;-1.30;99.90;-2.30;98012;;;;570071;251;24150;-74
2021/12/24 06:03:45;;;;;;;18.20;13.17;;;-1.20;99.90;-2.30;98023;;;;570179;251;24099;-75
2021/12/24 06:06:14;;;;;;;12.73;10.07;;;-1.20;99.90;-2.30;98025;;;;570125;251;24101;-74
2021/12/24 06:08:42;;;;;;;14.50;11.37;;;-1.20;99.90;-2.20;98027;;;;570203;247;24131;-75
2021/12/24 06:11:10;;;;;;;24.20;15.30;;;-1.20;99.90;-2.20;98021;;;;570665;250;24149;-74
2021/12/24 06:13:38;;;;;;;18.47;12.97;;;-1.10;99.90;-2.20;98017;;;;563161;250;24102;-75
2021/12/24 06:16:06;;;;;;;34.07;21.17;;;-1.10;99.90;-2.10;98007;;;;549554;257;24189;-74
2021/12/24 06:18:36;;;;;;;16.57;13.10;;;-1.10;99.90;-2.10;98000;;;;559475;252;24155;-74
2021/12/24 06:21:03;;;;;;;16.87;13.17;;;-1.00;99.90;-2.10;97997;;;;559528;252;24118;-74
2021/12/24 06:23:29;;;;;;;15.70;11.47;;;-1.00;99.90;-2.10;98002;;;;567939;251;24123;-74
2021/12/24 06:25:57;;;;;;;17.07;13.30;;;-1.10;99.90;-2.10;97994;;;;559494;252;24118;-75
2021/12/24 06:28:25;;;;;;;14.93;11.37;;;-1.10;99.90;-2.10;97986;;;;559621;252;24165;-76
2021/12/24 06:30:53;;;;;;;20.07;13.70;;;-1.10;99.90;-2.10;97996;;;;559509;252;25161;-74
2021/12/24 06:33:21;;;;;;;15.23;11.30;;;-1.10;99.90;-2.10;97987;;;;559532;252;24136;-73
2021/12/24 06:35:52;;;;;;;11.00;9.43;;;-1.10;99.90;-2.10;97990;;;;568723;251;24111;-75
2021/12/24 06:38:17;;;;;;;10.97;8.40;;;-1.10;99.90;-2.10;97986;;;;560835;252;24119;-74
2021/12/24 06:40:48;;;;;;;13.57;9.57;;;-1.10;99.90;-2.10;97979;;;;560392;251;24159;-74
2021/12/24 06:43:12;;;;;;;12.50;10.17;;;-1.00;99.90;-2.10;97979;;;;560103;252;24223;-75
2021/12/24 06:45:41;;;;;;;20.20;13.60;;;-1.10;99.90;-2.10;97971;;;;568423;251;24105;-75
2021/12/24 06:48:09;;;;;;;17.67;13.27;;;-1.10;99.90;-2.10;97972;;;;568326;251;24112;-74
2021/12/24 06:50:37;;;;;;;15.67;12.40;;;-1.10;99.90;-2.10;97977;;;;565409;252;24132;-76
2021/12/24 06:53:05;;;;;;;25.03;15.37;;;-1.10;99.90;-2.10;97985;;;;542065;261;24158;-76
2021/12/24 06:55:33;;;;;;;20.20;14.03;;;-1.10;99.90;-2.10;97973;;;;551324;252;24122;-75
2021/12/24 06:58:01;;;;;;;14.20;11.63;;;-1.10;99.90;-2.10;97983;;;;572270;247;24106;-76
2021/12/24 07:00:29;;;;;;;27.70;17.70;;;-1.10;99.90;-2.10;97995;;;;563279;251;24148;-76
2021/12/24 07:02:57;;;;;;;22.67;14.93;;;-1.00;99.90;-2.00;97985;;;;563468;251;24090;-76
2021/12/24 07:05:25;;;;;;;41.27;24.70;;;-1.00;99.90;-2.00;97975;;;;563378;251;24100;-75
2021/12/24 07:07:53;;;;;;;36.93;22.70;;;-1.00;99.90;-2.00;97984;;;;563491;251;24133;-75
2021/12/24 07:10:22;;;;;;;28.83;17.47;;;-1.00;99.90;-2.00;97981;;;;563436;251;24085;-76
2021/12/24 07:12:51;;;;;;;31.37;19.73;;;-0.90;99.90;-2.00;97986;;;;562765;250;24102;-75
2021/12/24 07:15:18;;;;;;;32.83;22.30;;;-0.90;99.90;-1.90;97986;;;;570039;250;24198;-75
2021/12/24 07:17:46;;;;;;;25.27;16.73;;;-0.90;99.90;-1.90;97985;;;;563206;249;24119;-75
2021/12/24 07:20:14;;;;;;;28.30;17.37;;;-0.80;99.90;-1.80;97986;;;;563915;250;24111;-75
2021/12/24 07:22:42;;;;;;;33.97;20.77;;;-0.80;99.90;-1.80;97984;;;;563869;251;25143;-76
2021/12/24 07:25:10;;;;;;;30.83;19.43;;;-0.80;99.90;-1.80;97982;;;;563811;249;24063;-76
2021/12/24 07:27:38;;;;;;;30.43;20.03;;;-0.80;99.90;-1.80;97994;;;;563876;251;24093;-75
2021/12/24 07:30:06;;;;;;;42.37;23.97;;;-0.70;99.90;-1.70;97991;;;;563847;251;24089;-75
2021/12/24 07:32:34;;;;;;;39.17;20.77;;;-0.70;99.90;-1.70;97989;;;;563939;251;24078;-75
2021/12/24 07:35:02;;;;;;;31.27;18.40;;;-0.60;99.90;-1.70;97990;;;;563341;249;24127;-74
2021/12/24 07:37:30;;;;;;;19.60;14.80;;;-0.60;99.90;-1.70;97978;;;;558920;253;24157;-75
2021/12/24 07:39:58;;;;;;;26.53;16.87;;;-0.60;99.90;-1.60;97987;;;;558115;253;24084;-75
2021/12/24 07:42:27;;;;;;;41.73;22.80;;;-0.60;99.90;-1.60;97989;;;;570369;250;24028;-75
2021/12/24 07:44:54;;;;;;;22.10;14.07;;;-0.50;99.90;-1.50;97987;;;;573789;248;24033;-75
2021/12/24 07:47:36;;;;;;;23.43;15.20;;;-0.50;99.90;-1.50;97987;;;;574597;248;24019;-75
2021/12/24 07:49:59;;;;;;;29.23;15.80;;;-0.50;99.90;-1.50;97985;;;;570273;244;34429;-76
2021/12/24 07:52:18;;;;;;;20.43;11.60;;;-0.40;99.90;-1.40;97971;;;;574652;247;23998;-75
2021/12/24 07:54:45;;;;;;;19.00;8.83;;;-0.40;99.90;-1.40;97968;;;;574882;248;24074;-75
2021/12/24 07:57:13;;;;;;;21.27;7.43;;;-0.30;99.90;-1.30;97967;;;;574613;248;23997;-74
2021/12/24 07:59:41;;;;;;;14.33;6.27;;;-0.20;99.90;-1.20;97963;;;;565734;250;24126;-75
2021/12/24 08:02:10;;;;;;;8.00;5.17;;;-0.10;99.90;-1.10;97973;;;;565868;249;23979;-75
2021/12/24 08:04:38;;;;;;;21.70;11.33;;;-0.10;99.90;-1.10;97972;;;;565479;250;24012;-75
2021/12/24 08:07:06;;;;;;;16.67;7.57;;;0.00;99.90;-1.00;97975;;;;565805;250;24042;-75
2021/12/24 08:09:36;;;;;;;16.83;8.97;;;0.10;99.90;-0.90;97975;;;;565514;250;24010;-75
2021/12/24 08:12:01;;;;;;;14.27;7.37;;;0.10;99.90;-0.90;97972;;;;573834;250;23985;-74
2021/12/24 08:14:29;;;;;;;18.60;10.37;;;0.20;99.90;-0.90;97975;;;;565567;250;24054;-74
2021/12/24 08:16:58;;;;;;;22.00;9.73;;;0.30;99.90;-0.80;97976;;;;565444;250;24011;-74
2021/12/24 08:19:26;;;;;;;21.00;10.90;;;0.30;99.90;-0.80;97967;;;;565198;250;25051;-74
2021/12/24 08:21:54;;;;;;;25.60;14.93;;;0.30;99.90;-0.80;97967;;;;560520;250;34380;-74
2021/12/24 08:24:22;;;;;;;10.63;5.97;;;0.30;99.90;-0.70;97981;;;;565167;250;24004;-74
2021/12/24 08:26:50;;;;;;;10.73;6.83;;;0.40;99.90;-0.70;97986;;;;564915;250;23989;-75
2021/12/24 08:29:18;;;;;;;20.83;10.17;;;0.50;99.90;-0.60;97982;;;;564416;251;24068;-75
2021/12/24 08:31:46;;;;;;;10.50;6.60;;;0.60;99.90;-0.60;97976;;;;554072;256;24189;-75
2021/12/24 08:34:16;;;;;;;17.03;8.50;;;0.50;99.90;-0.60;97979;;;;546620;256;46426;-74
2021/12/24 08:36:42;;;;;;;14.77;9.53;;;0.60;99.90;-0.50;97979;;;;552149;256;24162;-76
2021/12/24 08:39:10;;;;;;;20.27;11.83;;;0.60;99.90;-0.50;97980;;;;551938;256;24106;-75
2021/12/24 08:41:39;;;;;;;10.20;7.03;;;0.70;99.90;-0.50;97977;;;;551772;256;24132;-76
2021/12/24 08:44:06;;;;;;;10.53;7.87;;;0.70;99.90;-0.50;97980;;;;559515;252;24162;-75
2021/12/24 08:46:36;;;;;;;11.13;5.60;;;0.70;99.90;-0.50;97968;;;;559592;252;24104;-74
2021/12/24 08:49:02;;;;;;;16.57;7.10;;;0.70;99.90;-0.50;97957;;;;559523;252;24116;-75
2021/12/24 08:51:31;;;;;;;7.87;4.60;;;0.70;99.90;-0.50;97962;;;;567966;252;24207;-74
2021/12/24 08:54:02;;;;;;;12.83;6.80;;;0.70;99.90;-0.50;97963;;;;568216;252;24165;-74
2021/12/24 08:56:27;;;;;;;5.00;2.87;;;0.70;99.90;-0.50;97966;;;;557735;252;24167;-74
2021/12/24 08:58:55;;;;;;;6.77;3.70;;;0.70;99.90;-0.50;97957;;;;560646;252;24164;-75
2021/12/24 09:01:23;;;;;;;11.63;5.40;;;0.70;99.90;-0.50;97965;;;;570280;251;24159;-74
2021/12/24 09:03:51;;;;;;;17.47;9.03;;;0.70;99.90;-0.40;97962;;;;560365;252;24128;-74
2021/12/24 09:06:19;;;;;;;16.07;7.07;;;0.70;99.90;-0.40;97958;;;;560858;252;24108;-74
2021/12/24 09:08:47;;;;;;;11.57;7.10;;;0.70;99.90;-0.50;97962;;;;559992;252;24147;-74
2021/12/24 09:11:15;;;;;;;17.10;9.50;;;0.70;99.90;-0.50;97951;;;;559987;252;24165;-74
2021/12/24 09:13:43;;;;;;;8.23;6.50;;;0.70;99.90;-0.50;97963;;;;560155;252;24172;-73
2021/12/24 09:16:12;;;;;;;16.37;6.40;;;0.70;99.90;-0.40;97955;;;;568611;250;24098;-74
2021/12/24 09:18:41;;;;;;;7.63;5.30;;;0.70;99.90;-0.40;97953;;;;564663;249;24184;-75
2021/12/24 09:21:15;;;;;;;16.63;5.87;;;0.70;99.90;-0.40;97945;;;;565189;250;24106;-75
2021/12/24 09:23:35;;;;;;;15.53;8.70;;;0.70;99.90;-0.50;97940;;;;564338;250;24099;-73
2021/12/24 09:26:07;;;;;;;8.27;4.20;;;0.70;99.90;-0.40;97937;;;;563550;250;24018;-73
2021/12/24 09:28:32;;;;;;;10.07;4.10;;;0.70;99.90;-0.40;97935;;;;562605;252;24091;-74
2021/12/24 09:31:00;;;;;;;12.83;6.67;;;0.70;99.90;-0.40;97937;;;;569550;249;24183;-74
2021/12/24 09:33:28;;;;;;;14.53;7.13;;;0.80;99.90;-0.40;97927;;;;563379;251;24155;-73
2021/12/24 09:35:56;;;;;;;11.80;6.03;;;0.80;99.90;-0.40;97935;;;;557446;254;24136;-73
2021/12/24 09:38:24;;;;;;;9.60;4.20;;;0.80;99.90;-0.40;97925;;;;556988;254;24156;-73
2021/12/24 09:40:52;;;;;;;9.73;5.43;;;0.80;99.90;-0.40;97928;;;;560774;253;24063;-74
2021/12/24 09:43:20;;;;;;;11.00;5.70;;;0.80;99.90;-0.30;97938;;;;558688;253;24099;-74
2021/12/24 09:45:49;;;;;;;10.87;5.63;;;0.80;99.90;-0.30;97917;;;;563313;250;24100;-73
2021/12/24 09:48:17;;;;;;;9.37;3.27;;;0.80;99.90;-0.30;97917;;;;553280;255;24164;-74
2021/12/24 09:50:45;;;;;;;14.27;8.85;;;0.80;99.90;-0.30;97923;;;;553900;253;35353;-73
2021/12/24 09:53:12;;;;;;;8.07;4.73;;;0.80;99.90;-0.30;97906;;;;558518;253;24098;-74
2021/12/24 09:55:40;;;;;;;23.80;11.33;;;0.80;99.90;-0.30;97911;;;;563983;253;24075;-75
2021/12/24 09:58:08;;;;;;;8.73;3.63;;;0.80;99.90;-0.40;97892;;;;560926;252;25235;-74
2021/12/24 10:00:36;;;;;;;11.57;5.00;;;0.80;99.90;-0.30;97895;;;;560961;252;24151;-73
2021/12/24 10:03:05;;;;;;;9.67;6.23;;;0.80;99.90;-0.30;97889;;;;563103;252;24009;-75
2021/12/24 10:05:41;;;;;;;12.13;5.07;;;0.90;99.90;-0.30;97898;;;;576722;248;24120;-74
2021/12/24 10:08:19;;;;;;;9.70;5.50;;;0.90;99.90;-0.30;97892;;;;560417;251;24126;-75
2021/12/24 10:10:47;;;;;;;14.00;8.30;;;0.90;99.90;-0.20;97899;;;;563962;250;24137;-75
2021/12/24 10:13:27;;;;;;;7.17;4.43;;;0.90;99.90;-0.20;97899;;;;564115;250;24089;-74
2021/12/24 10:15:58;;;;;;;15.23;9.03;;;0.90;99.90;-0.20;97889;;;;564269;250;24109;-74
2021/12/24 10:18:34;;;;;;;12.93;5.90;;;0.90;99.90;-0.30;97887;;;;563746;250;24117;-75
2021/12/24 10:21:11;;;;;;;17.77;8.50;;;0.90;99.90;-0.30;97876;;;;563777;251;24137;-74
2021/12/24 10:23:48;;;;;;;14.63;7.43;;;0.90;99.90;-0.20;97880;;;;560607;251;24135;-74
2021/12/24 10:26:31;;;;;;;12.47;7.47;;;0.90;99.90;-0.20;97869;;;;561005;251;24145;-75
2021/12/24 10:29:08;;;;;;;14.73;7.70;;;0.90;99.90;-0.20;97866;;;;559197;251;24143;-75
2021/12/24 10:31:43;;;;;;;14.03;7.07;;;0.90;99.90;-0.20;97869;;;;560842;251;24097;-75
2021/12/24 10:34:16;;;;;;;10.37;5.40;;;1.00;99.90;-0.20;97868;;;;563659;251;24116;-74
2021/12/24 10:37:03;;;;;;;10.90;7.07;;;1.00;99.90;-0.10;97864;;;;563549;251;24099;-77
2021/12/24 10:39:42;;;;;;;7.80;5.97;;;1.10;99.90;-0.10;97875;;;;563562;251;25152;-74
2021/12/24 10:42:28;;;;;;;12.53;5.90;;;1.00;99.90;-0.10;97872;;;;560836;251;24079;-74
2021/12/24 10:44:56;;;;;;;11.30;6.63;;;1.10;99.90;-0.10;97866;;;;560212;251;24086;-74
2021/12/24 10:47:28;;;;;;;7.73;5.20;;;1.20;99.90;0.00;97860;;;;561510;250;24041;-74
2021/12/24 10:53:00;;;;;;;8.37;5.07;;;1.20;99.90;0.10;97844;;;;563564;251;24079;-73
2021/12/24 10:55:16;;;;;;;9.13;5.23;;;1.30;99.90;0.10;97830;;;;559366;251;24099;-75
2021/12/24 10:57:44;;;;;;;9.33;6.50;;;1.30;99.90;0.20;97818;;;;563140;251;24079;-75
2021/12/24 11:00:17;;;;;;;10.70;6.97;;;1.40;99.90;0.20;97817;;;;563065;251;24171;-74
2021/12/24 11:02:45;;;;;;;12.90;7.10;;;1.50;99.90;0.20;97832;;;;563573;251;24094;-77
2021/12/24 11:05:25;;;;;;;16.63;8.83;;;1.50;99.90;0.30;97817;;;;563369;251;24133;-74
2021/12/24 11:07:53;;;;;;;6.33;5.43;;;1.60;99.90;0.40;97817;;;;563320;251;24096;-78
2021/12/24 11:10:22;;;;;;;10.47;6.40;;;1.70;99.90;0.40;97819;;;;561697;251;24097;-77
2021/12/24 11:12:55;;;;;;;6.40;4.90;;;1.70;99.90;0.40;97813;;;;558149;248;24159;-73
2021/12/24 11:15:26;;;;;;;8.47;6.07;;;1.70;99.90;0.40;97814;;;;567580;247;24097;-78
2021/12/24 11:17:56;;;;;;;11.77;7.70;;;1.70;99.90;0.50;97831;;;;570845;247;24072;-74
2021/12/24 11:20:24;;;;;;;13.77;6.57;;;1.80;99.90;0.40;97831;;;;571157;247;24048;-75
2021/12/24 11:22:53;;;;;;;11.97;7.63;;;1.70;99.90;0.30;97820;;;;569736;250;24171;-75
2021/12/24 11:25:20;;;;;;;11.83;6.93;;;1.70;99.90;0.30;97819;;;;570206;246;24217;-74
2021/12/24 11:27:51;;;;;;;10.60;6.73;;;1.70;99.90;0.30;97816;;;;569795;251;24126;-76
2021/12/24 11:30:16;;;;;;;14.73;6.43;;;1.60;99.90;0.30;97810;;;;564172;249;24038;-73
2021/12/24 11:32:46;;;;;;;8.70;6.10;;;1.60;99.90;0.40;97813;;;;571754;246;24048;-72
2021/12/24 11:35:14;;;;;;;8.77;6.03;;;1.60;99.90;0.30;97811;;;;579639;247;24074;-72
2021/12/24 11:37:39;;;;;;;11.00;7.87;;;1.60;99.90;0.40;97809;;;;576529;246;25118;-72
2021/12/24 11:40:07;;;;;;;16.07;7.73;;;1.70;99.90;0.40;97814;;;;564876;249;24047;-71
2021/12/24 11:42:39;;;;;;;8.43;6.87;;;1.70;99.90;0.30;97814;;;;568037;249;24122;-72
2021/12/24 11:45:06;;;;;;;6.70;5.27;;;1.70;99.90;0.40;97813;;;;562486;250;24170;-73
2021/12/24 11:47:31;;;;;;;9.10;6.23;;;1.70;99.90;0.40;97807;;;;569060;252;24172;-71
2021/12/24 11:50:03;;;;;;;11.07;5.73;;;1.70;99.90;0.50;97801;;;;558621;255;24104;-73
2021/12/24 11:52:28;;;;;;;14.30;6.67;;;1.80;99.90;0.60;97801;;;;550926;256;24219;-77
2021/12/24 11:54:57;;;;;;;10.13;6.20;;;1.90;99.90;0.60;97794;;;;551428;256;24171;-73
2021/12/24 11:57:24;;;;;;;9.67;6.90;;;1.90;99.90;0.60;97790;;;;560232;247;24191;-77
2021/12/24 11:59:52;;;;;;;11.93;7.13;;;1.90;99.90;0.70;97790;;;;572224;246;24121;-78
2021/12/24 12:02:45;;;;;;;14.77;7.53;;;2.00;99.90;0.60;97789;;;;566588;252;24147;-78
2021/12/24 12:05:16;;;;;;;11.67;5.77;;;1.90;99.90;0.60;97778;;;;555966;252;24182;-75
2021/12/24 12:07:46;;;;;;;12.80;7.17;;;1.90;99.90;0.50;97765;;;;553887;254;24002;-79
2021/12/24 12:10:11;;;;;;;10.63;6.87;;;1.80;99.90;0.50;97765;;;;564624;249;25102;-80
2021/12/24 12:12:42;;;;;;;7.00;4.67;;;1.80;99.90;0.50;97767;;;;572659;247;24149;-77
2021/12/24 12:15:29;;;;;;;9.97;6.20;;;1.80;99.90;0.30;97770;;;;566363;249;24105;-73
2021/12/24 12:17:54;;;;;;;11.80;8.93;;;1.70;99.90;0.40;97781;;;;557556;250;45214;-73
2021/12/24 12:20:48;;;;;;;8.40;5.20;;;1.70;99.90;0.40;97778;;;;574167;248;25043;-72
2021/12/24 12:23:15;;;;;;;6.33;5.70;;;1.70;99.90;0.40;97780;;;;565885;249;24025;-72
2021/12/24 12:25:41;;;;;;;9.60;6.37;;;1.70;99.90;0.40;97761;;;;561334;252;24154;-74
2021/12/24 12:28:09;;;;;;;10.80;6.67;;;1.70;99.90;0.30;97766;;;;562950;249;24028;-78
2021/12/24 12:30:41;;;;;;;10.53;6.63;;;1.70;99.90;0.40;97755;;;;567364;246;24104;-74
2021/12/24 12:33:08;;;;;;;6.33;5.03;;;1.60;99.90;0.30;97762;;;;570002;248;24036;-76
2021/12/24 12:35:42;;;;;;;9.43;5.97;;;1.60;99.90;0.30;97761;;;;560378;251;24169;-72
2021/12/24 12:38:38;;;;;;;5.73;4.33;;;1.60;99.90;0.30;97773;;;;563535;250;24096;-74
2021/12/24 12:41:24;;;;;;;12.10;6.90;;;1.60;99.90;0.30;97753;;;;566386;250;24039;-80
2021/12/24 12:43:52;;;;;;;10.37;6.17;;;1.60;99.90;0.20;97747;;;;574719;248;24016;-81
2021/12/24 12:46:20;;;;;;;9.57;6.73;;;1.50;99.90;0.20;97746;;;;566114;250;24012;-79
2021/12/24 12:48:49;;;;;;;9.33;5.87;;;1.50;99.90;0.20;97744;;;;566077;250;24006;-74
2021/12/24 12:51:19;;;;;;;8.20;5.83;;;1.50;99.90;0.20;97738;;;;565807;250;24022;-78
2021/12/24 12:53:44;;;;;;;6.20;5.30;;;1.50;99.90;0.20;97738;;;;570892;250;24025;-75
2021/12/24 12:56:30;;;;;;;6.57;4.80;;;1.50;99.90;0.20;97741;;;;565658;250;24038;-77